sensor_id;sensor_type;location;lat;lon;timestamp;pressure;altitude;pressure_sealevel;temperature;humidity
47738;BME280;33502;47.182;27.506;2023-05-03T00:01:11;100902.97;;;10.68;67.60
47738;BME280;33502;47.182;27.506;2023-05-03T00:03:37;100900.13;;;10.74;65.85
47738;BME280;33502;47.182;27.506;2023-05-03T00:06:13;100897.16;;;10.84;64.84
47738;BME280;33502;47.182;27.506;2023-05-03T00:08:39;100900.38;;;10.92;63.90
47738;BME280;33502;47.182;27.506;2023-05-03T00:11:05;100907.31;;;10.96;62.96
47738;BME280;33502;47.182;27.506;2023-05-03T00:13:30;100903.03;;;10.92;63.53
47738;BME280;33502;47.182;27.506;2023-05-03T00:15:56;100892.81;;;10.81;63.37
47738;BME280;33502;47.182;27.506;2023-05-03T00:18:22;100890.31;;;10.76;63.81
47738;BME280;33502;47.182;27.506;2023-05-03T00:20:48;100888.44;;;10.80;62.46
47738;BME280;33502;47.182;27.506;2023-05-03T00:23:14;100881.34;;;10.81;62.56
47738;BME280;33502;47.182;27.506;2023-05-03T00:25:40;100882.19;;;10.81;61.52
47738;BME280;33502;47.182;27.506;2023-05-03T00:28:06;100882.06;;;10.86;61.46
47738;BME280;33502;47.182;27.506;2023-05-03T00:30:31;100874.88;;;10.89;61.20
47738;BME280;33502;47.182;27.506;2023-05-03T00:32:57;100876.72;;;10.87;61.53
47738;BME280;33502;47.182;27.506;2023-05-03T00:35:22;100876.22;;;10.76;61.83
47738;BME280;33502;47.182;27.506;2023-05-03T00:37:48;100872.91;;;10.69;62.32
47738;BME280;33502;47.182;27.506;2023-05-03T00:40:14;100869.44;;;10.67;62.47
47738;BME280;33502;47.182;27.506;2023-05-03T00:42:43;100869.34;;;10.70;62.16
47738;BME280;33502;47.182;27.506;2023-05-03T00:45:09;100866.56;;;10.73;61.85
47738;BME280;33502;47.182;27.506;2023-05-03T00:47:35;100858.84;;;10.67;62.22
47738;BME280;33502;47.182;27.506;2023-05-03T00:50:02;100862.31;;;10.69;60.59
47738;BME280;33502;47.182;27.506;2023-05-03T00:52:28;100859.31;;;10.80;60.53
47738;BME280;33502;47.182;27.506;2023-05-03T00:54:54;100858.22;;;10.86;59.76
47738;BME280;33502;47.182;27.506;2023-05-03T00:57:21;100862.84;;;10.79;59.54
47738;BME280;33502;47.182;27.506;2023-05-03T00:59:47;100860.16;;;10.81;59.69
47738;BME280;33502;47.182;27.506;2023-05-03T01:02:13;100868.06;;;10.82;59.13
47738;BME280;33502;47.182;27.506;2023-05-03T01:04:39;100852.25;;;10.79;58.44
47738;BME280;33502;47.182;27.506;2023-05-03T01:10:22;100855.97;;;10.73;57.92
47738;BME280;33502;47.182;27.506;2023-05-03T01:17:58;100864.44;;;10.33;60.51
47738;BME280;33502;47.182;27.506;2023-05-03T01:20:27;100858.28;;;10.32;60.27
47738;BME280;33502;47.182;27.506;2023-05-03T01:25:24;100860.81;;;10.35;59.84
47738;BME280;33502;47.182;27.506;2023-05-03T01:27:51;100858.28;;;10.32;60.55
47738;BME280;33502;47.182;27.506;2023-05-03T01:30:17;100860.13;;;10.29;60.55
47738;BME280;33502;47.182;27.506;2023-05-03T01:37:50;100858.19;;;10.07;62.30
47738;BME280;33502;47.182;27.506;2023-05-03T01:40:16;100864.31;;;10.08;61.93
47738;BME280;33502;47.182;27.506;2023-05-03T01:42:44;100864.41;;;10.05;63.39
47738;BME280;33502;47.182;27.506;2023-05-03T01:45:10;100852.50;;;9.91;63.81
47738;BME280;33502;47.182;27.506;2023-05-03T01:47:36;100860.75;;;9.82;64.02
47738;BME280;33502;47.182;27.506;2023-05-03T01:50:01;100858.22;;;9.77;65.00
47738;BME280;33502;47.182;27.506;2023-05-03T01:52:28;100866.44;;;9.68;65.53
47738;BME280;33502;47.182;27.506;2023-05-03T01:54:54;100869.53;;;9.53;66.22
47738;BME280;33502;47.182;27.506;2023-05-03T01:57:21;100868.28;;;9.36;67.25
47738;BME280;33502;47.182;27.506;2023-05-03T01:59:46;100878.34;;;9.22;68.09
47738;BME280;33502;47.182;27.506;2023-05-03T02:02:12;100874.09;;;9.16;68.68
47738;BME280;33502;47.182;27.506;2023-05-03T02:04:39;100882.81;;;9.20;69.10
47738;BME280;33502;47.182;27.506;2023-05-03T02:07:05;100883.00;;;9.14;69.43
47738;BME280;33502;47.182;27.506;2023-05-03T02:09:30;100884.84;;;9.10;69.41
47738;BME280;33502;47.182;27.506;2023-05-03T02:11:56;100876.97;;;9.09;70.42
47738;BME280;33502;47.182;27.506;2023-05-03T02:14:21;100877.97;;;9.05;70.50
47738;BME280;33502;47.182;27.506;2023-05-03T02:16:47;100874.16;;;9.15;70.48
47738;BME280;33502;47.182;27.506;2023-05-03T02:19:13;100878.53;;;9.16;70.60
47738;BME280;33502;47.182;27.506;2023-05-03T02:21:38;100880.47;;;9.09;70.37
47738;BME280;33502;47.182;27.506;2023-05-03T02:24:04;100874.41;;;9.06;70.80
47738;BME280;33502;47.182;27.506;2023-05-03T02:26:30;100876.44;;;8.96;71.21
47738;BME280;33502;47.182;27.506;2023-05-03T02:28:55;100876.63;;;8.88;72.05
47738;BME280;33502;47.182;27.506;2023-05-03T02:31:25;100872.91;;;8.97;71.74
47738;BME280;33502;47.182;27.506;2023-05-03T02:33:51;100882.00;;;8.87;72.12
47738;BME280;33502;47.182;27.506;2023-05-03T02:36:17;100876.16;;;8.74;72.94
47738;BME280;33502;47.182;27.506;2023-05-03T02:38:43;100883.44;;;8.64;74.00
47738;BME280;33502;47.182;27.506;2023-05-03T02:41:09;100870.25;;;8.64;74.26
47738;BME280;33502;47.182;27.506;2023-05-03T02:43:34;100864.03;;;8.65;74.91
47738;BME280;33502;47.182;27.506;2023-05-03T02:46:00;100865.78;;;8.66;74.68
47738;BME280;33502;47.182;27.506;2023-05-03T02:48:27;100857.88;;;8.66;75.41
47738;BME280;33502;47.182;27.506;2023-05-03T02:50:53;100860.47;;;8.68;75.58
47738;BME280;33502;47.182;27.506;2023-05-03T02:53:19;100858.63;;;8.71;75.00
47738;BME280;33502;47.182;27.506;2023-05-03T02:55:45;100863.78;;;8.76;75.16
47738;BME280;33502;47.182;27.506;2023-05-03T02:58:11;100857.72;;;8.72;76.04
47738;BME280;33502;47.182;27.506;2023-05-03T03:00:36;100864.97;;;8.64;77.66
47738;BME280;33502;47.182;27.506;2023-05-03T03:03:02;100859.97;;;8.53;78.99
47738;BME280;33502;47.182;27.506;2023-05-03T03:05:28;100860.13;;;8.47;80.38
47738;BME280;33502;47.182;27.506;2023-05-03T03:07:54;100857.69;;;8.38;81.95
47738;BME280;33502;47.182;27.506;2023-05-03T03:10:20;100864.00;;;8.31;83.47
47738;BME280;33502;47.182;27.506;2023-05-03T03:12:47;100867.66;;;8.25;84.13
47738;BME280;33502;47.182;27.506;2023-05-03T03:15:21;100865.09;;;8.23;85.14
47738;BME280;33502;47.182;27.506;2023-05-03T03:17:46;100857.91;;;8.29;85.35
47738;BME280;33502;47.182;27.506;2023-05-03T03:20:13;100849.91;;;8.32;85.76
47738;BME280;33502;47.182;27.506;2023-05-03T03:22:43;100857.00;;;8.30;86.88
47738;BME280;33502;47.182;27.506;2023-05-03T03:25:10;100861.47;;;8.28;87.20
47738;BME280;33502;47.182;27.506;2023-05-03T03:27:36;100863.19;;;8.29;87.57
47738;BME280;33502;47.182;27.506;2023-05-03T03:30:01;100865.78;;;8.30;87.91
47738;BME280;33502;47.182;27.506;2023-05-03T03:32:31;100877.19;;;8.31;88.44
47738;BME280;33502;47.182;27.506;2023-05-03T03:34:59;100882.44;;;8.32;89.10
47738;BME280;33502;47.182;27.506;2023-05-03T03:37:24;100884.13;;;8.35;89.16
47738;BME280;33502;47.182;27.506;2023-05-03T03:39:51;100873.53;;;8.36;89.40
47738;BME280;33502;47.182;27.506;2023-05-03T03:42:17;100878.75;;;8.39;89.66
47738;BME280;33502;47.182;27.506;2023-05-03T03:44:43;100874.34;;;8.40;89.84
47738;BME280;33502;47.182;27.506;2023-05-03T03:47:08;100881.34;;;8.42;89.79
47738;BME280;33502;47.182;27.506;2023-05-03T03:49:34;100879.56;;;8.45;90.18
47738;BME280;33502;47.182;27.506;2023-05-03T03:52:00;100883.91;;;8.46;91.16
47738;BME280;33502;47.182;27.506;2023-05-03T03:54:26;100890.00;;;8.48;91.32
47738;BME280;33502;47.182;27.506;2023-05-03T03:56:52;100892.59;;;8.51;91.08
47738;BME280;33502;47.182;27.506;2023-05-03T03:59:18;100887.28;;;8.52;90.58
47738;BME280;33502;47.182;27.506;2023-05-03T04:01:45;100892.41;;;8.58;90.97
47738;BME280;33502;47.182;27.506;2023-05-03T04:04:11;100886.72;;;8.74;91.22
47738;BME280;33502;47.182;27.506;2023-05-03T04:06:37;100890.56;;;8.95;88.68
47738;BME280;33502;47.182;27.506;2023-05-03T04:09:07;100892.56;;;9.18;86.61
47738;BME280;33502;47.182;27.506;2023-05-03T04:11:34;100901.59;;;9.42;84.33
47738;BME280;33502;47.182;27.506;2023-05-03T04:14:02;100901.69;;;9.69;83.18
47738;BME280;33502;47.182;27.506;2023-05-03T04:16:29;100902.50;;;9.99;81.13
47738;BME280;33502;47.182;27.506;2023-05-03T04:18:54;100908.28;;;10.42;78.43
47738;BME280;33502;47.182;27.506;2023-05-03T04:21:20;100903.03;;;10.92;74.78
47738;BME280;33502;47.182;27.506;2023-05-03T04:23:47;100895.34;;;11.58;71.65
47738;BME280;33502;47.182;27.506;2023-05-03T04:26:14;100898.75;;;12.07;68.01
47738;BME280;33502;47.182;27.506;2023-05-03T04:28:42;100903.91;;;12.77;64.94
47738;BME280;33502;47.182;27.506;2023-05-03T04:31:09;100897.94;;;13.52;61.30
47738;BME280;33502;47.182;27.506;2023-05-03T04:33:35;100900.97;;;14.20;57.72
47738;BME280;33502;47.182;27.506;2023-05-03T04:36:02;100894.78;;;14.74;54.96
47738;BME280;33502;47.182;27.506;2023-05-03T04:38:29;100916.09;;;15.08;53.79
47738;BME280;33502;47.182;27.506;2023-05-03T04:40:57;100917.31;;;15.36;52.73
47738;BME280;33502;47.182;27.506;2023-05-03T04:43:23;100923.84;;;15.64;51.98
47738;BME280;33502;47.182;27.506;2023-05-03T04:45:50;100922.34;;;15.58;52.15
47738;BME280;33502;47.182;27.506;2023-05-03T04:48:20;100922.88;;;15.82;51.46
47738;BME280;33502;47.182;27.506;2023-05-03T04:50:45;100931.56;;;15.86;51.93
47738;BME280;33502;47.182;27.506;2023-05-03T04:53:13;100933.13;;;16.38;50.13
47738;BME280;33502;47.182;27.506;2023-05-03T04:55:41;100935.81;;;16.84;48.50
47738;BME280;33502;47.182;27.506;2023-05-03T04:58:08;100931.00;;;17.05;47.86
47738;BME280;33502;47.182;27.506;2023-05-03T05:00:35;100927.94;;;16.97;47.62
47738;BME280;33502;47.182;27.506;2023-05-03T05:03:07;100927.78;;;17.43;47.01
47738;BME280;33502;47.182;27.506;2023-05-03T05:05:34;100934.09;;;17.71;46.06
47738;BME280;33502;47.182;27.506;2023-05-03T05:07:59;100928.38;;;17.91;45.80
47738;BME280;33502;47.182;27.506;2023-05-03T05:10:31;100928.13;;;18.23;44.68
47738;BME280;33502;47.182;27.506;2023-05-03T05:12:57;100928.31;;;18.20;44.11
47738;BME280;33502;47.182;27.506;2023-05-03T05:15:23;100928.13;;;18.23;44.27
47738;BME280;33502;47.182;27.506;2023-05-03T05:17:49;100925.63;;;18.47;43.88
47738;BME280;33502;47.182;27.506;2023-05-03T05:20:16;100928.81;;;18.67;43.72
47738;BME280;33502;47.182;27.506;2023-05-03T05:22:45;100931.38;;;18.68;43.14
47738;BME280;33502;47.182;27.506;2023-05-03T05:25:11;100926.53;;;18.88;43.20
47738;BME280;33502;47.182;27.506;2023-05-03T05:27:38;100922.16;;;19.25;42.71
47738;BME280;33502;47.182;27.506;2023-05-03T05:30:04;100921.63;;;19.46;42.44
47738;BME280;33502;47.182;27.506;2023-05-03T05:32:32;100936.34;;;19.53;42.22
47738;BME280;33502;47.182;27.506;2023-05-03T05:34:59;100932.03;;;19.63;42.32
47738;BME280;33502;47.182;27.506;2023-05-03T05:37:26;100936.97;;;19.69;41.98
47738;BME280;33502;47.182;27.506;2023-05-03T05:39:55;100936.88;;;19.71;41.46
47738;BME280;33502;47.182;27.506;2023-05-03T05:42:23;100946.56;;;19.48;41.75
47738;BME280;33502;47.182;27.506;2023-05-03T05:44:49;100941.91;;;19.88;41.44
47738;BME280;33502;47.182;27.506;2023-05-03T05:47:17;100958.59;;;20.18;40.54
47738;BME280;33502;47.182;27.506;2023-05-03T05:49:44;100953.41;;;20.03;40.76
47738;BME280;33502;47.182;27.506;2023-05-03T05:52:11;100952.97;;;19.97;40.51
47738;BME280;33502;47.182;27.506;2023-05-03T05:54:36;100951.75;;;20.13;41.02
47738;BME280;33502;47.182;27.506;2023-05-03T05:57:02;100949.03;;;20.75;39.77
47738;BME280;33502;47.182;27.506;2023-05-03T05:59:28;100962.34;;;20.52;40.36
47738;BME280;33502;47.182;27.506;2023-05-03T06:01:56;100961.50;;;20.51;40.13
47738;BME280;33502;47.182;27.506;2023-05-03T06:04:25;100962.88;;;20.33;40.27
47738;BME280;33502;47.182;27.506;2023-05-03T06:06:51;100964.22;;;20.14;41.06
47738;BME280;33502;47.182;27.506;2023-05-03T06:09:17;100963.00;;;20.56;40.29
47738;BME280;33502;47.182;27.506;2023-05-03T06:11:43;100955.38;;;20.98;40.26
47738;BME280;33502;47.182;27.506;2023-05-03T06:14:09;100960.91;;;21.54;39.12
47738;BME280;33502;47.182;27.506;2023-05-03T06:16:37;100960.31;;;22.07;38.55
47738;BME280;33502;47.182;27.506;2023-05-03T06:19:02;100968.53;;;21.72;38.16
47738;BME280;33502;47.182;27.506;2023-05-03T06:21:30;100951.72;;;21.68;38.58
47738;BME280;33502;47.182;27.506;2023-05-03T06:23:56;100958.13;;;21.67;38.54
47738;BME280;33502;47.182;27.506;2023-05-03T06:26:24;100955.53;;;21.99;38.61
47738;BME280;33502;47.182;27.506;2023-05-03T06:28:49;100943.91;;;21.65;38.76
47738;BME280;33502;47.182;27.506;2023-05-03T06:31:16;100950.38;;;21.85;38.59
47738;BME280;33502;47.182;27.506;2023-05-03T06:33:43;100946.13;;;21.71;38.59
47738;BME280;33502;47.182;27.506;2023-05-03T06:36:09;100942.59;;;22.37;38.01
47738;BME280;33502;47.182;27.506;2023-05-03T06:38:36;100945.91;;;23.47;36.39
47738;BME280;33502;47.182;27.506;2023-05-03T06:41:02;100946.59;;;22.86;37.27
47738;BME280;33502;47.182;27.506;2023-05-03T06:43:28;100946.59;;;23.18;36.48
47738;BME280;33502;47.182;27.506;2023-05-03T06:46:00;100948.38;;;23.60;36.25
47738;BME280;33502;47.182;27.506;2023-05-03T06:48:25;100951.09;;;22.97;36.25
47738;BME280;33502;47.182;27.506;2023-05-03T06:50:52;100948.75;;;23.24;36.27
47738;BME280;33502;47.182;27.506;2023-05-03T06:53:18;100950.81;;;23.00;36.44
47738;BME280;33502;47.182;27.506;2023-05-03T06:55:44;100957.03;;;23.12;36.13
47738;BME280;33502;47.182;27.506;2023-05-03T06:58:10;100945.97;;;23.36;36.02
47738;BME280;33502;47.182;27.506;2023-05-03T07:00:36;100937.81;;;24.38;34.62
47738;BME280;33502;47.182;27.506;2023-05-03T07:03:05;100950.38;;;24.49;35.30
47738;BME280;33502;47.182;27.506;2023-05-03T07:05:31;100941.69;;;24.45;33.81
47738;BME280;33502;47.182;27.506;2023-05-03T07:07:56;100947.22;;;23.83;34.96
47738;BME280;33502;47.182;27.506;2023-05-03T07:10:22;100945.19;;;24.16;34.41
47738;BME280;33502;47.182;27.506;2023-05-03T07:12:49;100944.22;;;24.17;34.13
47738;BME280;33502;47.182;27.506;2023-05-03T07:15:15;100942.50;;;24.36;34.01
47738;BME280;33502;47.182;27.506;2023-05-03T07:17:41;100943.72;;;24.53;34.13
47738;BME280;33502;47.182;27.506;2023-05-03T07:20:06;100943.16;;;24.98;33.72
47738;BME280;33502;47.182;27.506;2023-05-03T07:22:32;100938.88;;;24.86;32.49
47738;BME280;33502;47.182;27.506;2023-05-03T07:24:58;100931.41;;;24.39;33.44
47738;BME280;33502;47.182;27.506;2023-05-03T07:27:24;100942.16;;;24.70;32.93
47738;BME280;33502;47.182;27.506;2023-05-03T07:29:50;100948.50;;;24.39;32.36
47738;BME280;33502;47.182;27.506;2023-05-03T07:32:16;100941.50;;;24.17;32.24
47738;BME280;33502;47.182;27.506;2023-05-03T07:34:42;100941.25;;;23.80;32.10
47738;BME280;33502;47.182;27.506;2023-05-03T07:37:07;100939.72;;;23.97;33.09
47738;BME280;33502;47.182;27.506;2023-05-03T07:39:33;100937.31;;;24.03;32.50
47738;BME280;33502;47.182;27.506;2023-05-03T07:41:58;100929.38;;;24.02;32.34
47738;BME280;33502;47.182;27.506;2023-05-03T07:44:24;100939.19;;;24.73;31.55
47738;BME280;33502;47.182;27.506;2023-05-03T07:46:49;100926.56;;;25.20;31.62
47738;BME280;33502;47.182;27.506;2023-05-03T07:49:15;100932.91;;;24.92;31.13
47738;BME280;33502;47.182;27.506;2023-05-03T07:51:41;100929.06;;;24.55;31.45
47738;BME280;33502;47.182;27.506;2023-05-03T07:54:07;100931.44;;;24.49;31.56
47738;BME280;33502;47.182;27.506;2023-05-03T07:56:32;100925.69;;;24.22;31.87
47738;BME280;33502;47.182;27.506;2023-05-03T07:58:58;100938.25;;;24.23;32.24
47738;BME280;33502;47.182;27.506;2023-05-03T08:01:24;100933.41;;;24.27;31.66
47738;BME280;33502;47.182;27.506;2023-05-03T08:03:52;100941.13;;;23.60;32.25
47738;BME280;33502;47.182;27.506;2023-05-03T08:06:18;100943.97;;;23.59;32.68
47738;BME280;33502;47.182;27.506;2023-05-03T08:08:44;100942.50;;;24.26;32.16
47738;BME280;33502;47.182;27.506;2023-05-03T08:11:10;100942.50;;;24.16;31.83
47738;BME280;33502;47.182;27.506;2023-05-03T08:13:36;100932.78;;;24.04;31.18
47738;BME280;33502;47.182;27.506;2023-05-03T08:16:02;100935.25;;;23.55;31.55
47738;BME280;33502;47.182;27.506;2023-05-03T08:18:28;100944.00;;;23.99;31.66
47738;BME280;33502;47.182;27.506;2023-05-03T08:20:53;100950.38;;;24.39;31.25
47738;BME280;33502;47.182;27.506;2023-05-03T08:23:19;100954.75;;;24.20;30.54
47738;BME280;33502;47.182;27.506;2023-05-03T08:25:46;100938.63;;;24.09;30.73
47738;BME280;33502;47.182;27.506;2023-05-03T08:28:12;100929.41;;;24.31;30.58
47738;BME280;33502;47.182;27.506;2023-05-03T08:30:37;100933.44;;;24.47;30.46
47738;BME280;33502;47.182;27.506;2023-05-03T08:33:03;100938.84;;;24.37;30.52
47738;BME280;33502;47.182;27.506;2023-05-03T08:35:28;100938.81;;;24.17;30.17
47738;BME280;33502;47.182;27.506;2023-05-03T08:37:56;100942.81;;;24.33;29.97
47738;BME280;33502;47.182;27.506;2023-05-03T08:40:21;100943.00;;;24.99;29.72
47738;BME280;33502;47.182;27.506;2023-05-03T08:42:48;100933.41;;;25.34;29.14
47738;BME280;33502;47.182;27.506;2023-05-03T08:45:17;100933.44;;;25.05;29.03
47738;BME280;33502;47.182;27.506;2023-05-03T08:47:43;100936.16;;;24.66;29.46
47738;BME280;33502;47.182;27.506;2023-05-03T08:50:13;100937.91;;;24.17;30.32
47738;BME280;33502;47.182;27.506;2023-05-03T08:52:39;100932.63;;;24.06;29.50
47738;BME280;33502;47.182;27.506;2023-05-03T08:55:06;100933.00;;;23.81;29.85
47738;BME280;33502;47.182;27.506;2023-05-03T08:57:32;100934.16;;;23.58;29.90
47738;BME280;33502;47.182;27.506;2023-05-03T08:59:58;100938.88;;;23.96;30.56
47738;BME280;33502;47.182;27.506;2023-05-03T09:02:28;100935.47;;;23.94;29.79
47738;BME280;33502;47.182;27.506;2023-05-03T09:04:54;100940.69;;;23.86;30.46
47738;BME280;33502;47.182;27.506;2023-05-03T09:07:21;100943.28;;;23.67;30.29
47738;BME280;33502;47.182;27.506;2023-05-03T09:09:46;100919.75;;;23.57;30.76
47738;BME280;33502;47.182;27.506;2023-05-03T09:12:13;100925.50;;;23.95;32.20
47738;BME280;33502;47.182;27.506;2023-05-03T09:14:57;100935.00;;;23.89;29.88
47738;BME280;33502;47.182;27.506;2023-05-03T09:17:22;100943.78;;;23.51;30.22
47738;BME280;33502;47.182;27.506;2023-05-03T09:19:49;100936.97;;;23.25;30.01
47738;BME280;33502;47.182;27.506;2023-05-03T09:22:15;100937.19;;;23.01;30.88
47738;BME280;33502;47.182;27.506;2023-05-03T09:24:49;100947.25;;;22.78;31.17
47738;BME280;33502;47.182;27.506;2023-05-03T09:27:18;100933.56;;;22.91;31.37
47738;BME280;33502;47.182;27.506;2023-05-03T09:29:45;100934.72;;;23.10;31.51
47738;BME280;33502;47.182;27.506;2023-05-03T09:32:11;100924.94;;;22.97;31.44
47738;BME280;33502;47.182;27.506;2023-05-03T09:34:37;100930.38;;;23.18;30.33
47738;BME280;33502;47.182;27.506;2023-05-03T09:37:02;100930.91;;;23.12;29.61
47738;BME280;33502;47.182;27.506;2023-05-03T09:39:28;100924.53;;;23.02;30.23
47738;BME280;33502;47.182;27.506;2023-05-03T09:41:54;100919.69;;;23.38;30.13
47738;BME280;33502;47.182;27.506;2023-05-03T09:44:25;100918.81;;;23.68;30.45
47738;BME280;33502;47.182;27.506;2023-05-03T09:47:04;100921.72;;;23.24;30.08
47738;BME280;33502;47.182;27.506;2023-05-03T09:49:30;100921.69;;;23.15;29.10
47738;BME280;33502;47.182;27.506;2023-05-03T09:51:57;100914.97;;;23.09;29.90
47738;BME280;33502;47.182;27.506;2023-05-03T09:54:23;100927.59;;;23.30;30.74
47738;BME280;33502;47.182;27.506;2023-05-03T09:56:49;100921.69;;;23.15;30.88
47738;BME280;33502;47.182;27.506;2023-05-03T09:59:16;100925.03;;;23.07;31.08
47738;BME280;33502;47.182;27.506;2023-05-03T10:01:42;100904.56;;;23.04;29.46
47738;BME280;33502;47.182;27.506;2023-05-03T10:04:08;100905.59;;;23.13;30.38
47738;BME280;33502;47.182;27.506;2023-05-03T10:06:36;100909.22;;;23.02;30.87
47738;BME280;33502;47.182;27.506;2023-05-03T10:11:49;100908.38;;;22.70;31.51
47738;BME280;33502;47.182;27.506;2023-05-03T10:14:16;100905.69;;;22.70;31.98
47738;BME280;33502;47.182;27.506;2023-05-03T10:16:43;100897.41;;;22.82;30.94
47738;BME280;33502;47.182;27.506;2023-05-03T10:19:12;100909.56;;;22.77;31.19
47738;BME280;33502;47.182;27.506;2023-05-03T10:21:46;100891.09;;;22.72;31.48
47738;BME280;33502;47.182;27.506;2023-05-03T10:24:15;100895.06;;;23.10;30.01
47738;BME280;33502;47.182;27.506;2023-05-03T10:26:45;100906.84;;;23.09;31.58
47738;BME280;33502;47.182;27.506;2023-05-03T10:32:04;100898.06;;;23.38;30.43
47738;BME280;33502;47.182;27.506;2023-05-03T10:34:46;100897.16;;;23.58;29.92
47738;BME280;33502;47.182;27.506;2023-05-03T10:37:12;100894.50;;;23.68;29.64
47738;BME280;33502;47.182;27.506;2023-05-03T10:39:43;100893.09;;;23.74;29.40
47738;BME280;33502;47.182;27.506;2023-05-03T10:42:08;100893.91;;;24.15;29.76
47738;BME280;33502;47.182;27.506;2023-05-03T10:44:37;100892.56;;;23.80;28.17
47738;BME280;33502;47.182;27.506;2023-05-03T10:49:35;100888.06;;;24.00;29.18
47738;BME280;33502;47.182;27.506;2023-05-03T10:52:01;100882.13;;;24.16;28.90
47738;BME280;33502;47.182;27.506;2023-05-03T10:54:27;100878.56;;;24.15;29.27
47738;BME280;33502;47.182;27.506;2023-05-03T10:56:54;100869.09;;;23.90;28.67
47738;BME280;33502;47.182;27.506;2023-05-03T10:59:21;100870.63;;;23.73;29.05
47738;BME280;33502;47.182;27.506;2023-05-03T11:01:48;100874.13;;;23.64;30.00
47738;BME280;33502;47.182;27.506;2023-05-03T11:04:29;100867.44;;;23.58;29.92
47738;BME280;33502;47.182;27.506;2023-05-03T11:06:56;100870.03;;;23.70;29.67
47738;BME280;33502;47.182;27.506;2023-05-03T11:09:29;100864.16;;;23.64;30.42
47738;BME280;33502;47.182;27.506;2023-05-03T11:11:54;100856.78;;;23.76;30.46
47738;BME280;33502;47.182;27.506;2023-05-03T11:14:21;100856.91;;;24.15;30.60
47738;BME280;33502;47.182;27.506;2023-05-03T11:16:46;100848.50;;;24.18;28.69
47738;BME280;33502;47.182;27.506;2023-05-03T11:19:14;100866.41;;;23.90;28.53
47738;BME280;33502;47.182;27.506;2023-05-03T11:21:40;100854.47;;;23.93;28.81
47738;BME280;33502;47.182;27.506;2023-05-03T11:24:06;100854.63;;;24.11;28.65
47738;BME280;33502;47.182;27.506;2023-05-03T11:26:38;100847.63;;;23.98;28.51
47738;BME280;33502;47.182;27.506;2023-05-03T11:29:04;100846.75;;;23.88;28.54
47738;BME280;33502;47.182;27.506;2023-05-03T11:31:30;100842.66;;;24.03;28.58
47738;BME280;33502;47.182;27.506;2023-05-03T11:33:56;100853.06;;;24.47;28.81
47738;BME280;33502;47.182;27.506;2023-05-03T11:36:22;100848.09;;;24.33;29.21
47738;BME280;33502;47.182;27.506;2023-05-03T11:38:47;100846.69;;;24.38;29.06
47738;BME280;33502;47.182;27.506;2023-05-03T11:41:14;100849.34;;;24.19;29.04
47738;BME280;33502;47.182;27.506;2023-05-03T11:43:41;100844.09;;;24.37;28.98
47738;BME280;33502;47.182;27.506;2023-05-03T11:46:07;100853.38;;;24.34;28.81
47738;BME280;33502;47.182;27.506;2023-05-03T11:48:33;100838.81;;;24.35;29.75
47738;BME280;33502;47.182;27.506;2023-05-03T11:50:59;100832.59;;;24.54;30.69
47738;BME280;33502;47.182;27.506;2023-05-03T11:53:31;100827.03;;;24.36;30.09
47738;BME280;33502;47.182;27.506;2023-05-03T11:55:57;100824.88;;;24.69;29.28
47738;BME280;33502;47.182;27.506;2023-05-03T11:58:26;100832.56;;;24.74;29.13
47738;BME280;33502;47.182;27.506;2023-05-03T12:00:53;100825.28;;;24.65;28.54
47738;BME280;33502;47.182;27.506;2023-05-03T12:03:19;100814.63;;;24.63;28.65
47738;BME280;33502;47.182;27.506;2023-05-03T12:05:46;100825.72;;;24.11;29.14
47738;BME280;33502;47.182;27.506;2023-05-03T12:08:12;100819.16;;;23.94;29.74
47738;BME280;33502;47.182;27.506;2023-05-03T12:10:38;100815.50;;;23.64;29.88
47738;BME280;33502;47.182;27.506;2023-05-03T12:13:04;100804.75;;;23.34;30.19
47738;BME280;33502;47.182;27.506;2023-05-03T12:15:30;100804.47;;;23.06;30.30
47738;BME280;33502;47.182;27.506;2023-05-03T12:17:57;100807.34;;;23.45;30.27
47738;BME280;33502;47.182;27.506;2023-05-03T12:20:23;100807.75;;;23.40;29.63
47738;BME280;33502;47.182;27.506;2023-05-03T12:22:53;100805.13;;;23.60;29.17
47738;BME280;33502;47.182;27.506;2023-05-03T12:25:19;100803.78;;;24.04;29.38
47738;BME280;33502;47.182;27.506;2023-05-03T12:27:45;100801.09;;;24.14;28.74
47738;BME280;33502;47.182;27.506;2023-05-03T12:30:11;100815.75;;;24.02;28.79
47738;BME280;33502;47.182;27.506;2023-05-03T12:32:37;100805.91;;;23.81;30.10
47738;BME280;33502;47.182;27.506;2023-05-03T12:35:06;100799.22;;;24.15;28.79
47738;BME280;33502;47.182;27.506;2023-05-03T12:37:33;100794.25;;;24.20;28.71
47738;BME280;33502;47.182;27.506;2023-05-03T12:39:59;100792.09;;;23.84;27.91
47738;BME280;33502;47.182;27.506;2023-05-03T12:42:25;100787.09;;;23.80;29.11
47738;BME280;33502;47.182;27.506;2023-05-03T12:44:50;100787.88;;;23.51;28.82
47738;BME280;33502;47.182;27.506;2023-05-03T12:47:16;100787.97;;;23.40;28.96
47738;BME280;33502;47.182;27.506;2023-05-03T12:49:41;100788.31;;;23.16;28.95
47738;BME280;33502;47.182;27.506;2023-05-03T12:52:07;100785.38;;;23.29;29.55
47738;BME280;33502;47.182;27.506;2023-05-03T12:54:33;100776.78;;;23.44;29.44
47738;BME280;33502;47.182;27.506;2023-05-03T12:56:59;100772.97;;;23.67;29.54
47738;BME280;33502;47.182;27.506;2023-05-03T12:59:28;100777.78;;;23.63;28.80
47738;BME280;33502;47.182;27.506;2023-05-03T13:01:54;100766.72;;;23.66;28.86
47738;BME280;33502;47.182;27.506;2023-05-03T13:04:20;100762.63;;;23.81;28.86